Wetterdaten: Woche 10.04.06 - 16.04.06 (KW15)
Datum Zeit Temperatur Luftfeuchte Luftdruck Niederschlag Wind Richtung Sonne Solar Taupunkt Windchill
10.04.2006 00:00 2.2 C 100 % 1013.0 hPa 3.6 l/m 0.5 km/h (0 Bft) N-NW 0.00 h 0 W/m 2.1 C 2.1 C
10.04.2006 01:00 1.7 C 100 % 1012.1 hPa 1.3 l/m 0.1 km/h (0 Bft) N 0.00 h 0 W/m 1.7 C 1.7 C
10.04.2006 02:00 1.7 C 100 % 1011.5 hPa 3.6 l/m 0.1 km/h (0 Bft) SO 0.00 h 0 W/m 1.7 C 1.7 C
10.04.2006 03:00 1.9 C 100 % 1010.2 hPa 2.0 l/m 0.5 km/h (0 Bft) SO 0.00 h 0 W/m 1.9 C 1.8 C
10.04.2006 04:00 2.2 C 100 % 1009.1 hPa 1.6 l/m 1.8 km/h (1 Bft) NW 0.00 h 0 W/m 2.2 C 1.7 C
10.04.2006 05:00 2.6 C 100 % 1008.8 hPa 4.9 l/m 0.0 km/h (0 Bft) N 0.00 h 0 W/m 2.6 C 2.6 C
10.04.2006 06:00 2.9 C 100 % 1008.8 hPa 4.9 l/m 0.6 km/h (0 Bft) NW 0.00 h 0 W/m 2.9 C 2.7 C
10.04.2006 07:00 3.0 C 100 % 1008.8 hPa 4.2 l/m 0.9 km/h (0 Bft) S-SO 0.00 h 3 W/m 3.0 C 2.9 C
10.04.2006 08:00 3.2 C 100 % 1008.8 hPa 3.6 l/m 0.1 km/h (0 Bft) N 0.00 h 19 W/m 3.2 C 3.2 C
10.04.2006 09:00 2.7 C 100 % 1009.8 hPa 2.9 l/m 0.6 km/h (0 Bft) NW 0.00 h 38 W/m 2.7 C 2.7 C
10.04.2006 10:00 2.2 C 100 % 1009.9 hPa 1.6 l/m 0.5 km/h (0 Bft) W 0.00 h 71 W/m 2.2 C 2.2 C
10.04.2006 11:00 2.7 C 100 % 1009.9 hPa 1.3 l/m 0.0 km/h (0 Bft) N 0.00 h 123 W/m 2.7 C 2.7 C
10.04.2006 12:00 2.6 C 100 % 1010.8 hPa 2.0 l/m 0.1 km/h (0 Bft) N 0.00 h 98 W/m 2.6 C 2.6 C
10.04.2006 13:00 2.2 C 100 % 1011.0 hPa 1.3 l/m 0.1 km/h (0 Bft) N 0.00 h 167 W/m 2.2 C 2.2 C
10.04.2006 14:00 3.6 C 99 % 1010.8 hPa 0.6 l/m 0.0 km/h (0 Bft) N 0.00 h 192 W/m 3.5 C 3.6 C
10.04.2006 15:00 3.9 C 96 % 1010.7 hPa 0.6 l/m 0.2 km/h (0 Bft) N 0.00 h 131 W/m 3.3 C 3.9 C
10.04.2006 16:00 3.7 C 97 % 1010.8 hPa 1.3 l/m 0.0 km/h (0 Bft) N 0.00 h 78 W/m 3.2 C 3.7 C
10.04.2006 17:00 3.2 C 98 % 1011.6 hPa 1.6 l/m 0.2 km/h (0 Bft) N 0.00 h 41 W/m 2.9 C 3.2 C
10.04.2006 18:00 2.8 C 99 % 1012.8 hPa 2.0 l/m 0.0 km/h (0 Bft) N 0.00 h 18 W/m 2.6 C 2.8 C
10.04.2006 19:00 1.9 C 100 % 1014.0 hPa 2.0 l/m 0.0 km/h (0 Bft) N 0.00 h 6 W/m 1.9 C 1.9 C
10.04.2006 20:00 1.3 C 100 % 1015.0 hPa 1.3 l/m 1.9 km/h (1 Bft) SO 0.00 h 1 W/m 1.3 C 1.1 C
10.04.2006 21:00 1.1 C 100 % 1016.1 hPa 0.6 l/m 4.1 km/h (1 Bft) SO 0.00 h 0 W/m 1.1 C 0.3 C
10.04.2006 22:00 1.1 C 100 % 1017.3 hPa 0.3 l/m 2.9 km/h (1 Bft) SO 0.00 h 0 W/m 1.1 C 0.8 C
10.04.2006 23:00 1.1 C 100 % 1017.4 hPa 1.0 l/m 2.7 km/h (1 Bft) SO 0.00 h 0 W/m 1.1 C 0.6 C
11.04.2006 00:00 1.2 C 100 % 1017.4 hPa 0.6 l/m 0.8 km/h (0 Bft) SO 0.00 h 0 W/m 1.2 C 1.1 C
11.04.2006 01:00 1.4 C 100 % 1017.3 hPa 0.0 l/m 0.3 km/h (0 Bft) O-SO 0.00 h 0 W/m 1.4 C 1.4 C
11.04.2006 02:00 1.6 C 100 % 1017.3 hPa 0.3 l/m 1.0 km/h (0 Bft) SO 0.00 h 0 W/m 1.6 C 1.6 C
11.04.2006 03:00 1.6 C 100 % 1018.0 hPa 0.0 l/m 0.2 km/h (0 Bft) SO 0.00 h 0 W/m 1.6 C 1.5 C
11.04.2006 04:00 1.6 C 100 % 1018.3 hPa 0.0 l/m 0.6 km/h (0 Bft) SO 0.00 h 0 W/m 1.6 C 1.5 C
11.04.2006 05:00 1.7 C 100 % 1018.3 hPa 0.0 l/m 1.4 km/h (1 Bft) SO 0.00 h 0 W/m 1.7 C 1.6 C
11.04.2006 06:00 1.7 C 100 % 1018.3 hPa 0.0 l/m 0.2 km/h (0 Bft) SO 0.00 h 4 W/m 1.7 C 1.7 C
11.04.2006 07:00 1.9 C 100 % 1019.1 hPa 0.0 l/m 0.0 km/h (0 Bft) N 0.00 h 29 W/m 1.9 C 1.9 C
11.04.2006 08:00 4.4 C 100 % 1019.0 hPa 0.0 l/m 0.1 km/h (0 Bft) NW 0.43 h 153 W/m 4.4 C 4.4 C
11.04.2006 09:00 5.8 C 92 % 1019.2 hPa 0.0 l/m 0.1 km/h (0 Bft) N 0.13 h 217 W/m 4.6 C 5.8 C
11.04.2006 10:00 7.9 C 70 % 1019.5 hPa 0.0 l/m 2.1 km/h (1 Bft) NW 0.23 h 296 W/m 2.7 C 7.6 C
11.04.2006 11:00 8.2 C 78 % 1019.5 hPa 0.0 l/m 11.4 km/h (2 Bft) NW 0.20 h 264 W/m 4.5 C 6.3 C
11.04.2006 12:00 8.1 C 72 % 1019.5 hPa 0.0 l/m 9.6 km/h (2 Bft) NW 0.00 h 280 W/m 3.4 C 6.5 C
11.04.2006 13:00 6.5 C 73 % 1019.7 hPa 0.0 l/m 5.6 km/h (1 Bft) W-NW 0.00 h 86 W/m 2.0 C 5.5 C
11.04.2006 14:00 7.2 C 72 % 1019.5 hPa 0.0 l/m 13.0 km/h (3 Bft) SO 0.27 h 439 W/m 2.5 C 4.9 C
11.04.2006 15:00 8.8 C 56 % 1018.4 hPa 0.3 l/m 3.3 km/h (1 Bft) SO 0.03 h 216 W/m 0.6 C 8.3 C
11.04.2006 16:00 9.7 C 52 % 1018.2 hPa 0.0 l/m 3.2 km/h (1 Bft) W-NW 0.07 h 265 W/m 0.3 C 9.4 C
11.04.2006 17:00 10.7 C 50 % 1018.1 hPa 0.0 l/m 2.7 km/h (1 Bft) W-NW 0.67 h 374 W/m 0.3 C 10.6 C
11.04.2006 18:00 9.0 C 50 % 1018.3 hPa 0.0 l/m 6.6 km/h (2 Bft) SO 0.73 h 183 W/m -1.0 C 8.1 C
11.04.2006 19:00 6.3 C 70 % 1019.5 hPa 0.0 l/m 7.9 km/h (2 Bft) SO 0.00 h 44 W/m 1.2 C 4.7 C
11.04.2006 20:00 5.0 C 79 % 1019.9 hPa 0.0 l/m 4.5 km/h (1 Bft) SO 0.00 h 6 W/m 1.6 C 4.1 C
11.04.2006 21:00 4.0 C 85 % 1020.1 hPa 0.0 l/m 1.3 km/h (1 Bft) S-SO 0.00 h 0 W/m 1.7 C 3.9 C
11.04.2006 22:00 3.5 C 86 % 1019.9 hPa 0.0 l/m 0.7 km/h (0 Bft) S-SO 0.00 h 0 W/m 1.5 C 3.5 C
11.04.2006 23:00 2.5 C 88 % 1019.3 hPa 0.0 l/m 0.0 km/h (0 Bft) N 0.00 h 0 W/m 0.7 C 2.5 C
12.04.2006 00:00 1.6 C 92 % 1019.4 hPa 0.0 l/m 1.3 km/h (1 Bft) SO 0.00 h 0 W/m 0.5 C 1.5 C
12.04.2006 01:00 1.0 C 95 % 1018.8 hPa 0.0 l/m 2.7 km/h (1 Bft) SO 0.00 h 0 W/m 0.4 C 0.5 C
12.04.2006 02:00 1.6 C 97 % 1018.4 hPa 0.0 l/m 6.1 km/h (2 Bft) SO 0.00 h 0 W/m 1.1 C -0.1 C
12.04.2006 03:00 1.7 C 95 % 1017.4 hPa 0.0 l/m 3.7 km/h (1 Bft) SO 0.00 h 0 W/m 1.0 C 1.0 C
12.04.2006 04:00 1.9 C 94 % 1017.3 hPa 0.0 l/m 0.3 km/h (0 Bft) S-SO 0.00 h 0 W/m 1.1 C 1.9 C
12.04.2006 05:00 2.1 C 92 % 1017.1 hPa 0.0 l/m 0.0 km/h (0 Bft) N 0.00 h 0 W/m 0.9 C 2.1 C
12.04.2006 06:00 2.3 C 90 % 1017.1 hPa 0.0 l/m 0.4 km/h (0 Bft) SW 0.00 h 3 W/m 0.8 C 2.3 C
12.04.2006 07:00 2.6 C 91 % 1016.7 hPa 0.0 l/m 0.3 km/h (0 Bft) SO 0.00 h 19 W/m 1.3 C 2.6 C
12.04.2006 08:00 3.3 C 89 % 1016.3 hPa 0.0 l/m 4.3 km/h (1 Bft) S-SO 0.00 h 45 W/m 1.6 C 2.3 C
12.04.2006 09:00 4.0 C 86 % 1015.9 hPa 0.0 l/m 1.3 km/h (1 Bft) W-SW 0.00 h 86 W/m 1.9 C 3.8 C
12.04.2006 10:00 6.0 C 78 % 1015.6 hPa 0.0 l/m 5.1 km/h (1 Bft) S 0.00 h 190 W/m 2.5 C 5.1 C
12.04.2006 11:00 6.5 C 74 % 1016.0 hPa 0.0 l/m 7.6 km/h (2 Bft) W 0.00 h 157 W/m 2.2 C 5.2 C
12.04.2006 12:00 5.5 C 82 % 1016.7 hPa 0.3 l/m 6.7 km/h (2 Bft) S-SW 0.00 h 89 W/m 2.6 C 4.2 C
12.04.2006 13:00 5.1 C 86 % 1016.8 hPa 0.0 l/m 3.5 km/h (1 Bft) SW 0.00 h 72 W/m 2.9 C 4.5 C
12.04.2006 14:00 6.4 C 80 % 1016.3 hPa 0.0 l/m 3.4 km/h (1 Bft) W 0.00 h 102 W/m 3.1 C 5.9 C
12.04.2006 15:00 5.6 C 88 % 1016.7 hPa 0.6 l/m 1.5 km/h (1 Bft) W 0.00 h 54 W/m 3.8 C 5.3 C
12.04.2006 16:00 6.2 C 90 % 1016.7 hPa 0.3 l/m 1.7 km/h (1 Bft) S-SO 0.00 h 127 W/m 4.7 C 6.1 C
12.04.2006 17:00 7.4 C 84 % 1015.4 hPa 0.0 l/m 3.6 km/h (1 Bft) NW 0.00 h 91 W/m 4.8 C 6.9 C
12.04.2006 18:00 7.1 C 80 % 1015.5 hPa 0.0 l/m 6.0 km/h (2 Bft) W-NW 0.00 h 48 W/m 3.9 C 6.1 C
12.04.2006 19:00 6.5 C 84 % 1016.4 hPa 0.3 l/m 0.4 km/h (0 Bft) NW 0.00 h 19 W/m 4.0 C 6.5 C
12.04.2006 20:00 5.6 C 92 % 1017.0 hPa 0.3 l/m 0.6 km/h (0 Bft) N-NW 0.00 h 3 W/m 4.5 C 5.6 C
12.04.2006 21:00 4.6 C 95 % 1017.9 hPa 0.0 l/m 1.8 km/h (1 Bft) S-SO 0.00 h 0 W/m 3.9 C 4.2 C
12.04.2006 22:00 3.7 C 97 % 1018.1 hPa 0.0 l/m 0.2 km/h (0 Bft) SO 0.00 h 0 W/m 3.3 C 3.6 C
12.04.2006 23:00 3.8 C 99 % 1019.0 hPa 0.3 l/m 0.0 km/h (0 Bft) N 0.00 h 0 W/m 3.6 C 3.8 C
13.04.2006 00:00 3.3 C 100 % 1019.1 hPa 0.0 l/m 0.1 km/h (0 Bft) O-SO 0.00 h 0 W/m 3.3 C 3.3 C
13.04.2006 01:00 2.7 C 100 % 1019.2 hPa 0.0 l/m 0.0 km/h (0 Bft) N 0.00 h 0 W/m 2.7 C 2.7 C
13.04.2006 02:00 3.6 C 100 % 1019.1 hPa 0.0 l/m 0.0 km/h (0 Bft) N 0.00 h 0 W/m 3.6 C 3.6 C
13.04.2006 03:00 4.1 C 100 % 1019.0 hPa 0.0 l/m 0.0 km/h (0 Bft) N 0.00 h 0 W/m 4.1 C 4.1 C
13.04.2006 04:00 4.0 C 100 % 1019.1 hPa 0.0 l/m 0.0 km/h (0 Bft) N 0.00 h 0 W/m 4.0 C 4.0 C
13.04.2006 05:00 3.7 C 100 % 1018.1 hPa 0.0 l/m 0.0 km/h (0 Bft) N 0.00 h 0 W/m 3.7 C 3.7 C
13.04.2006 06:00 4.0 C 100 % 1018.0 hPa 0.0 l/m 0.0 km/h (0 Bft) N 0.00 h 5 W/m 4.0 C 4.0 C
13.04.2006 07:00 4.5 C 100 % 1018.7 hPa 0.0 l/m 0.0 km/h (0 Bft) N 0.00 h 33 W/m 4.5 C 4.5 C
13.04.2006 08:00 5.6 C 100 % 1018.8 hPa 0.0 l/m 0.0 km/h (0 Bft) N 0.00 h 91 W/m 5.6 C 5.6 C
13.04.2006 09:00 7.7 C 85 % 1018.5 hPa 0.0 l/m 0.0 km/h (0 Bft) N 0.00 h 150 W/m 5.3 C 7.7 C
13.04.2006 10:00 9.9 C 69 % 1018.2 hPa 0.0 l/m 0.0 km/h (0 Bft) N 0.00 h 219 W/m 4.5 C 9.9 C
13.04.2006 11:00 11.7 C 60 % 1017.7 hPa 0.0 l/m 0.0 km/h (0 Bft) N 0.00 h 206 W/m 4.3 C 11.7 C
13.04.2006 12:00 11.6 C 63 % 1017.4 hPa 0.0 l/m 0.0 km/h (0 Bft) N 0.00 h 236 W/m 4.8 C 11.6 C
13.04.2006 13:00 12.8 C 51 % 1016.8 hPa 0.0 l/m 0.0 km/h (0 Bft) N 0.00 h 203 W/m 2.9 C 12.8 C
13.04.2006 14:00 11.1 C 62 % 1017.0 hPa 0.0 l/m 0.0 km/h (0 Bft) N 0.00 h 259 W/m 4.1 C 11.1 C
13.04.2006 15:00 10.9 C 69 % 1017.0 hPa 0.0 l/m 0.0 km/h (0 Bft) N 0.03 h 255 W/m 5.4 C 10.9 C
13.04.2006 16:00 8.9 C 84 % 1017.3 hPa 0.6 l/m 0.0 km/h (0 Bft) N 0.00 h 148 W/m 6.3 C 8.9 C
13.04.2006 17:00 8.8 C 86 % 1017.3 hPa 0.6 l/m 0.0 km/h (0 Bft) N 0.00 h 134 W/m 6.7 C 8.8 C
13.04.2006 18:00 8.6 C 87 % 1017.4 hPa 0.0 l/m 0.0 km/h (0 Bft) N 0.00 h 54 W/m 6.6 C 8.6 C
13.04.2006 19:00 7.7 C 91 % 1017.5 hPa 0.0 l/m 0.0 km/h (0 Bft) N 0.00 h 13 W/m 6.4 C 7.7 C
13.04.2006 20:00 7.5 C 94 % 1017.5 hPa 0.0 l/m 0.0 km/h (0 Bft) N 0.00 h 1 W/m 6.5 C 7.5 C
13.04.2006 21:00 7.6 C 95 % 1017.7 hPa 0.0 l/m 0.0 km/h (0 Bft) N 0.00 h 0 W/m 6.8 C 7.6 C
13.04.2006 22:00 7.7 C 95 % 1018.3 hPa 0.0 l/m 0.0 km/h (0 Bft) N 0.00 h 0 W/m 7.0 C 7.7 C
13.04.2006 23:00 7.8 C 94 % 1018.5 hPa 0.0 l/m 0.0 km/h (0 Bft) N 0.00 h 0 W/m 7.0 C 7.8 C
14.04.2006 00:00 7.9 C 94 % 1018.5 hPa 0.0 l/m 0.0 km/h (0 Bft) N 0.00 h 0 W/m 7.0 C 7.9 C
14.04.2006 01:00 8.1 C 92 % 1018.3 hPa 0.0 l/m 0.0 km/h (0 Bft) N 0.00 h 0 W/m 6.8 C 8.1 C
14.04.2006 02:00 8.3 C 90 % 1017.4 hPa 0.0 l/m 0.0 km/h (0 Bft) N 0.00 h 0 W/m 6.8 C 8.3 C
14.04.2006 03:00 8.5 C 87 % 1017.4 hPa 0.0 l/m 0.0 km/h (0 Bft) N 0.00 h 0 W/m 6.5 C 8.5 C
14.04.2006 04:00 8.7 C 87 % 1017.3 hPa 0.0 l/m 0.0 km/h (0 Bft) N 0.00 h 0 W/m 6.6 C 8.7 C
14.04.2006 05:00 8.9 C 86 % 1017.0 hPa 0.0 l/m 0.0 km/h (0 Bft) N 0.00 h 0 W/m 6.7 C 8.9 C
14.04.2006 06:00 8.9 C 86 % 1017.0 hPa 0.0 l/m 0.0 km/h (0 Bft) N 0.00 h 5 W/m 6.7 C 8.9 C
14.04.2006 07:00 9.3 C 82 % 1017.3 hPa 0.0 l/m 0.0 km/h (0 Bft) N 0.00 h 25 W/m 6.5 C 9.3 C
14.04.2006 08:00 10.5 C 74 % 1017.1 hPa 0.0 l/m 0.0 km/h (0 Bft) N 0.00 h 60 W/m 5.9 C 10.5 C
14.04.2006 09:00 11.3 C 69 % 1017.3 hPa 0.0 l/m 0.0 km/h (0 Bft) N 0.00 h 103 W/m 5.8 C 11.3 C
14.04.2006 10:00 13.2 C 61 % 1017.8 hPa 0.0 l/m 1.4 km/h (1 Bft) W-NW 0.00 h 250 W/m 5.8 C 13.2 C
14.04.2006 11:00 14.0 C 57 % 1017.4 hPa 0.0 l/m 19.3 km/h (3 Bft) W-NW 0.08 h 307 W/m 5.5 C 14.0 C
14.04.2006 12:00 13.8 C 53 % 1016.7 hPa 0.0 l/m 19.5 km/h (3 Bft) W-NW 0.33 h 491 W/m 4.3 C 13.8 C
14.04.2006 13:00 13.3 C 54 % 1016.1 hPa 0.0 l/m 22.4 km/h (4 Bft) W-NW 0.50 h 473 W/m 4.3 C 13.3 C
14.04.2006 14:00 14.7 C 57 % 1015.4 hPa 0.0 l/m 18.7 km/h (3 Bft) NW 0.93 h 783 W/m 6.2 C 14.7 C
14.04.2006 15:00 15.9 C 54 % 1014.3 hPa 0.0 l/m 10.6 km/h (2 Bft) NW 0.97 h 695 W/m 6.7 C 15.9 C
14.04.2006 16:00 16.6 C 47 % 1014.2 hPa 0.0 l/m 12.4 km/h (3 Bft) NW 1.00 h 590 W/m 5.4 C 16.6 C
14.04.2006 17:00 16.1 C 48 % 1014.3 hPa 0.0 l/m 5.3 km/h (1 Bft) NW 1.00 h 456 W/m 5.1 C 16.1 C
14.04.2006 18:00 15.6 C 50 % 1014.3 hPa 0.0 l/m 11.1 km/h (2 Bft) NW 1.00 h 299 W/m 5.1 C 15.6 C
14.04.2006 19:00 14.2 C 54 % 1014.6 hPa 0.0 l/m 5.7 km/h (1 Bft) NW 0.67 h 103 W/m 5.0 C 14.2 C
14.04.2006 20:00 11.2 C 65 % 1016.0 hPa 0.0 l/m 0.9 km/h (0 Bft) O-SO 0.00 h 8 W/m 4.8 C 11.2 C
14.04.2006 21:00 8.9 C 73 % 1016.3 hPa 0.0 l/m 1.3 km/h (1 Bft) O-SO 0.00 h 0 W/m 4.2 C 8.8 C
14.04.2006 22:00 7.3 C 82 % 1016.5 hPa 0.0 l/m 0.0 km/h (0 Bft) N 0.00 h 0 W/m 4.5 C 7.3 C
14.04.2006 23:00 6.4 C 88 % 1016.6 hPa 0.0 l/m 0.0 km/h (0 Bft) N 0.00 h 0 W/m 4.6 C 6.4 C
15.04.2006 00:00 5.3 C 88 % 1016.9 hPa 0.0 l/m 0.0 km/h (0 Bft) N 0.00 h 0 W/m 3.5 C 5.3 C
15.04.2006 01:00 4.7 C 93 % 1016.9 hPa 0.0 l/m 0.0 km/h (0 Bft) N 0.00 h 0 W/m 3.6 C 4.7 C
15.04.2006 02:00 4.3 C 92 % 1016.9 hPa 0.0 l/m 0.0 km/h (0 Bft) N 0.00 h 0 W/m 3.1 C 4.3 C
15.04.2006 03:00 3.9 C 93 % 1017.0 hPa 0.0 l/m 0.0 km/h (0 Bft) N 0.00 h 0 W/m 2.9 C 3.9 C
15.04.2006 04:00 3.3 C 95 % 1016.9 hPa 0.0 l/m 0.0 km/h (0 Bft) N 0.00 h 0 W/m 2.6 C 3.3 C
15.04.2006 05:00 2.9 C 97 % 1016.1 hPa 0.0 l/m 0.0 km/h (0 Bft) N 0.00 h 0 W/m 2.5 C 2.9 C
15.04.2006 06:00 2.7 C 99 % 1016.1 hPa 0.0 l/m 0.0 km/h (0 Bft) N 0.00 h 11 W/m 2.5 C 2.7 C
15.04.2006 07:00 2.9 C 99 % 1016.1 hPa 0.0 l/m 0.0 km/h (0 Bft) N 0.17 h 68 W/m 2.7 C 2.9 C
15.04.2006 08:00 4.3 C 96 % 1014.8 hPa 0.0 l/m 0.0 km/h (0 Bft) N 0.57 h 230 W/m 3.8 C 4.3 C
15.04.2006 09:00 6.8 C 82 % 1013.9 hPa 0.0 l/m 0.0 km/h (0 Bft) N 0.27 h 248 W/m 3.9 C 6.8 C
15.04.2006 10:00 9.3 C 70 % 1013.1 hPa 0.0 l/m 0.0 km/h (0 Bft) N 0.70 h 456 W/m 4.0 C 9.3 C
15.04.2006 11:00 11.8 C 62 % 1012.7 hPa 0.0 l/m 0.1 km/h (0 Bft) SO 0.00 h 353 W/m 4.7 C 11.8 C
15.04.2006 12:00 13.1 C 58 % 1012.6 hPa 0.0 l/m 0.1 km/h (0 Bft) N 0.00 h 314 W/m 5.0 C 13.1 C
15.04.2006 13:00 13.4 C 58 % 1012.6 hPa 0.0 l/m 0.4 km/h (0 Bft) SO 0.00 h 207 W/m 5.2 C 13.4 C
15.04.2006 14:00 12.9 C 60 % 1012.6 hPa 0.0 l/m 2.5 km/h (1 Bft) SO 0.00 h 101 W/m 5.4 C 12.9 C
15.04.2006 15:00 11.7 C 78 % 1013.7 hPa 1.6 l/m 1.5 km/h (1 Bft) NW 0.00 h 93 W/m 7.9 C 11.7 C
15.04.2006 16:00 10.9 C 92 % 1013.6 hPa 2.3 l/m 0.5 km/h (0 Bft) O-SO 0.00 h 98 W/m 9.6 C 10.9 C
15.04.2006 17:00 10.4 C 96 % 1013.0 hPa 1.3 l/m 0.1 km/h (0 Bft) SO 0.00 h 58 W/m 9.7 C 10.4 C
15.04.2006 18:00 10.1 C 96 % 1012.3 hPa 0.3 l/m 0.1 km/h (0 Bft) SO 0.00 h 37 W/m 9.5 C 10.1 C
15.04.2006 19:00 9.8 C 98 % 1013.0 hPa 0.3 l/m 1.2 km/h (1 Bft) SO 0.00 h 7 W/m 9.5 C 9.6 C
15.04.2006 20:00 9.6 C 97 % 1013.1 hPa 1.3 l/m 0.5 km/h (0 Bft) O-SO 0.00 h 1 W/m 9.2 C 9.6 C
15.04.2006 21:00 9.9 C 98 % 1013.0 hPa 0.0 l/m 1.6 km/h (1 Bft) SO 0.00 h 0 W/m 9.6 C 9.8 C
15.04.2006 22:00 9.7 C 97 % 1013.1 hPa 0.6 l/m 0.0 km/h (0 Bft) N 0.00 h 0 W/m 9.2 C 9.7 C
15.04.2006 23:00 9.7 C 98 % 1013.1 hPa 1.0 l/m 0.2 km/h (0 Bft) SO 0.00 h 0 W/m 9.4 C 9.7 C
16.04.2006 00:00 9.7 C 99 % 1013.6 hPa 2.3 l/m 0.4 km/h (0 Bft) SO 0.00 h 0 W/m 9.5 C 9.7 C
16.04.2006 01:00 9.8 C 98 % 1013.3 hPa 2.3 l/m 0.8 km/h (0 Bft) SO 0.00 h 0 W/m 9.5 C 9.8 C
16.04.2006 02:00 9.7 C 98 % 1013.1 hPa 1.0 l/m 1.3 km/h (1 Bft) SO 0.00 h 0 W/m 9.4 C 9.5 C
16.04.2006 03:00 9.6 C 99 % 1013.1 hPa 0.0 l/m 1.4 km/h (1 Bft) SO 0.00 h 0 W/m 9.4 C 9.5 C
16.04.2006 04:00 9.8 C 99 % 1013.0 hPa 0.0 l/m 2.0 km/h (1 Bft) SW 0.00 h 0 W/m 9.6 C 9.6 C
16.04.2006 05:00 9.9 C 93 % 1013.0 hPa 0.0 l/m 2.5 km/h (1 Bft) SW 0.00 h 0 W/m 8.7 C 9.7 C
16.04.2006 06:00 9.5 C 91 % 1013.1 hPa 0.3 l/m 4.0 km/h (1 Bft) S-SO 0.00 h 7 W/m 8.1 C 9.1 C
16.04.2006 07:00 9.9 C 86 % 1013.2 hPa 0.0 l/m 0.6 km/h (0 Bft) S 0.23 h 82 W/m 7.6 C 9.9 C
16.04.2006 08:00 11.2 C 77 % 1013.9 hPa 0.0 l/m 0.8 km/h (0 Bft) S-SW 0.37 h 201 W/m 7.2 C 11.2 C
16.04.2006 09:00 12.6 C 67 % 1013.7 hPa 0.0 l/m 5.6 km/h (1 Bft) W 0.63 h 358 W/m 6.6 C 12.6 C
16.04.2006 10:00 13.2 C 60 % 1013.6 hPa 0.0 l/m 16.4 km/h (3 Bft) W-NW 0.13 h 299 W/m 5.6 C 13.2 C
16.04.2006 11:00 13.6 C 57 % 1013.6 hPa 0.0 l/m 16.1 km/h (3 Bft) NW 0.00 h 201 W/m 5.2 C 13.6 C
16.04.2006 12:00 12.5 C 63 % 1014.3 hPa 0.3 l/m 24.2 km/h (4 Bft) NW 0.00 h 149 W/m 5.4 C 12.5 C
16.04.2006 13:00 12.1 C 75 % 1014.8 hPa 0.3 l/m 20.9 km/h (4 Bft) NW 0.62 h 672 W/m 7.7 C 12.1 C
16.04.2006 14:00 13.7 C 63 % 1014.6 hPa 0.0 l/m 28.8 km/h (5 Bft) NW 0.77 h 660 W/m 6.8 C 13.7 C
16.04.2006 15:00 14.1 C 62 % 1014.5 hPa 0.0 l/m 25.3 km/h (4 Bft) W-NW 0.43 h 480 W/m 6.7 C 14.1 C
16.04.2006 16:00 15.0 C 54 % 1014.4 hPa 0.0 l/m 21.1 km/h (4 Bft) W-NW 0.82 h 593 W/m 5.8 C 15.0 C
16.04.2006 17:00 13.7 C 61 % 1014.9 hPa 0.3 l/m 24.3 km/h (4 Bft) NW 0.17 h 176 W/m 6.0 C 13.7 C
16.04.2006 18:00 10.7 C 82 % 1016.0 hPa 0.6 l/m 13.9 km/h (3 Bft) NW 0.23 h 127 W/m 7.7 C 10.7 C
16.04.2006 19:00 10.8 C 77 % 1016.0 hPa 0.0 l/m 3.2 km/h (1 Bft) NW 0.10 h 51 W/m 7.0 C 10.8 C
16.04.2006 20:00 10.2 C 82 % 1016.1 hPa 0.0 l/m 0.0 km/h (0 Bft) N 0.00 h 5 W/m 7.3 C 10.2 C
16.04.2006 21:00 10.1 C 84 % 1017.2 hPa 0.0 l/m 0.0 km/h (0 Bft) N 0.00 h 0 W/m 7.4 C 10.1 C
16.04.2006 22:00 10.0 C 84 % 1017.2 hPa 0.0 l/m 0.1 km/h (0 Bft) W-NW 0.00 h 0 W/m 7.4 C 10.0 C
16.04.2006 23:00 9.6 C 84 % 1017.2 hPa 0.0 l/m 0.0 km/h (0 Bft) N 0.00 h 0 W/m 7.0 C 9.6 C
Min-Datum _ 12.04.06 11.04.06 10.04.06 - 10.04.06 - - - 11.04.06 12.04.06
_ Min-Zeit 01:32 17:25 08:47 - 00:09 - - - 17:25 02:30
Minimum _ 0.7 C 37 % 1008.7 hPa - 0.0 km/h (0 Bft) - - - -3.0 C -1.2 C
Max-Datum _ 14.04.06 10.04.06 11.04.06 10.04.06 16.04.06 - 14.04.06 16.04.06 15.04.06 14.04.06
_ Max-Zeit 16:18 00:09 22:48 05:01 15:54 - 11:54 13:15 16:53 16:18
Maximum _ 16.9 C 100 % 1020.2 hPa 4.9 l/m 48.2 km/h
W-NW (6 Bft)
- 0.08 h 974 W/m 10.1 C 16.9 C
Durchschnitt _ 7.1 C 85 % 1015.8 hPa #71.2 l/m 3.0 km/h (1 Bft) NW #15:29 h 171 W/m 4.4 C 6.9 C
© Kaiko 2006